Terminal Aerodrome Forecast
Issued by NWS Cleveland, OH

Home | Current Version | Previous Version | Text Only | Print | Product List | Glossary Off
Versions: 1 2 3 4 5 6 7 8 9 10 11 12 13 14 15 16 17 18 19 20 21 22

948
FTUS41 KCLE 221251 AAA
TAFCAK
TAF AMD
KCAK 221251Z 2213/2312 19006KT 6SM BR VCSH BKN035
      TEMPO 2213/2216 5SM -SHRA BR BKN020
     FM221600 20006KT P6SM BKN022
     FM230300 18006KT 5SM BR OVC015
     FM230700 20010KT 4SM BR OVC009=

USA.gov is the U.S. government's official web portal to all federal, state and local government web resources and services.